Time;durP1;ratioP1;P1;durP2;ratioP2;P2;SDS_P1;SDS_P2;PMS_P1;PMS_P2;Temp;Humidity;BMP_temperature;BMP_pressure;BME280_temperature;BME280_humidity;BME280_pressure;Samples;Min_cycle;Max_cycle;Signal;HPM_P1;HPM_P2
2023/11/10 00:02:20;;;;;;;1.83;1.00;;;;;;;14.53;63.91;99714.25;4968651;28;98573;-74
2023/11/10 00:04:49;;;;;;;1.38;1.10;;;;;;;14.58;63.71;99710.34;4967263;28;96898;-74
2023/11/10 00:07:17;;;;;;;2.10;1.25;;;;;;;14.52;64.04;99716.06;4965090;28;99107;-74
2023/11/10 00:09:45;;;;;;;3.20;1.10;;;;;;;14.47;64.35;99707.56;4969870;28;98712;-73
2023/11/10 00:12:12;;;;;;;2.88;1.10;;;;;;;14.54;63.76;99703.53;4969783;28;96780;-72
2023/11/10 00:14:39;;;;;;;3.15;1.48;;;;;;;14.55;63.87;99705.25;4962550;28;97140;-73
2023/11/10 00:17:09;;;;;;;1.35;1.10;;;;;;;14.52;64.11;99697.47;4970140;28;98829;-73
2023/11/10 00:19:36;;;;;;;1.45;1.10;;;;;;;14.58;64.17;99697.03;4970700;28;98899;-74
2023/11/10 00:22:04;;;;;;;3.03;1.10;;;;;;;14.45;64.30;99693.53;4971956;28;96847;-73
2023/11/10 00:24:33;;;;;;;1.65;1.20;;;;;;;14.49;64.10;99691.53;4970797;28;97619;-73
2023/11/10 00:27:01;;;;;;;3.10;1.20;;;;;;;14.52;64.09;99694.81;4970247;28;99041;-74
2023/11/10 00:29:27;;;;;;;5.22;1.58;;;;;;;14.40;64.41;99703.63;4971378;28;98858;-74
2023/11/10 00:31:53;;;;;;;2.78;1.00;;;;;;;14.45;64.17;99697.97;4971943;28;97259;-74
2023/11/10 00:34:20;;;;;;;4.30;1.17;;;;;;;14.27;64.88;99692.94;4973544;28;97342;-74
2023/11/10 00:36:46;;;;;;;2.60;1.00;;;;;;;14.29;65.05;99699.00;4970244;28;99272;-74
2023/11/10 00:39:12;;;;;;;3.25;1.00;;;;;;;14.22;65.12;99688.88;4970179;28;101682;-74
2023/11/10 00:41:39;;;;;;;4.57;1.35;;;;;;;14.10;65.69;99681.75;4969909;28;98604;-74
2023/11/10 00:44:06;;;;;;;3.58;1.10;;;;;;;14.21;65.10;99684.53;4970805;28;97504;-74
2023/11/10 00:46:33;;;;;;;2.58;1.20;;;;;;;14.18;65.20;99676.75;4970081;28;101476;-74
2023/11/10 00:48:59;;;;;;;2.65;1.05;;;;;;;14.22;65.08;99681.78;4971362;28;99673;-74
2023/11/10 00:51:26;;;;;;;3.28;1.38;;;;;;;14.11;65.54;99683.44;4972121;28;98495;-75
2023/11/10 00:53:52;;;;;;;4.00;1.27;;;;;;;14.12;65.12;99690.44;4971130;28;97073;-75
2023/11/10 00:56:18;;;;;;;2.83;1.20;;;;;;;14.20;64.71;99681.00;4972020;28;99184;-75
2023/11/10 00:58:45;;;;;;;3.10;1.50;;;;;;;14.08;65.46;99694.25;4968467;28;98802;-74
2023/11/10 01:01:13;;;;;;;5.05;0.95;;;;;;;13.95;65.68;99689.75;4971480;28;96752;-76
2023/11/10 01:03:39;;;;;;;4.30;1.38;;;;;;;14.04;65.27;99685.66;4971260;28;97014;-75
2023/11/10 01:06:05;;;;;;;1.80;1.30;;;;;;;13.95;65.43;99689.75;4966873;28;99018;-74
2023/11/10 01:08:32;;;;;;;2.00;0.95;;;;;;;13.86;65.60;99685.03;4971646;28;98834;-75
2023/11/10 01:10:58;;;;;;;2.35;1.30;;;;;;;13.80;66.39;99676.63;4975069;28;96861;-75
2023/11/10 01:13:24;;;;;;;2.47;1.58;;;;;;;13.92;65.83;99674.03;4968174;28;96860;-73
2023/11/10 01:15:51;;;;;;;2.05;1.00;;;;;;;13.95;65.51;99678.28;4964124;28;99293;-73
2023/11/10 01:18:19;;;;;;;2.22;1.02;;;;;;;13.98;65.14;99680.72;4969457;28;98735;-74
2023/11/10 01:20:46;;;;;;;5.93;1.00;;;;;;;14.02;64.98;99678.72;4965464;28;99191;-74
2023/11/10 01:23:13;;;;;;;3.28;1.42;;;;;;;13.77;65.67;99676.84;4969790;28;96955;-73
2023/11/10 01:25:39;;;;;;;4.95;1.73;;;;;;;13.93;65.37;99669.56;4968764;28;100166;-73
2023/11/10 01:28:06;;;;;;;2.58;0.90;;;;;;;13.88;65.33;99664.56;4971747;28;97847;-74
2023/11/10 01:30:32;;;;;;;3.55;1.02;;;;;;;13.88;65.24;99661.91;4969460;28;96986;-73
2023/11/10 01:33:00;;;;;;;1.10;0.85;;;;;;;13.75;65.67;99663.66;4968043;28;97022;-74
2023/11/10 01:35:28;;;;;;;3.63;1.10;;;;;;;13.61;66.07;99663.72;4969336;28;98915;-74
2023/11/10 01:37:55;;;;;;;4.97;1.23;;;;;;;13.66;66.02;99664.25;4970464;28;98926;-74
2023/11/10 01:40:21;;;;;;;3.80;1.00;;;;;;;13.66;65.73;99668.72;4970256;28;96792;-74
2023/11/10 01:42:47;;;;;;;3.65;1.10;;;;;;;13.68;65.53;99658.84;4970701;28;96794;-73
2023/11/10 01:45:15;;;;;;;3.00;1.08;;;;;;;13.72;65.06;99650.59;4963819;28;99267;-74
2023/11/10 01:47:44;;;;;;;4.43;0.98;;;;;;;13.79;64.62;99653.69;4970948;28;99138;-73
2023/11/10 01:50:11;;;;;;;4.80;1.13;;;;;;;13.74;64.67;99648.69;4967076;28;98907;-73
2023/11/10 01:52:41;;;;;;;1.33;0.90;;;;;;;13.72;64.39;99653.22;4969116;28;99566;-73
2023/11/10 01:55:09;;;;;;;2.70;1.13;;;;;;;13.54;64.85;99655.28;4969773;28;103107;-73
2023/11/10 01:57:35;;;;;;;6.07;1.02;;;;;;;13.61;64.33;99655.75;4972096;28;96877;-73
2023/11/10 02:00:02;;;;;;;2.83;1.02;;;;;;;13.55;64.06;99657.00;4967865;28;97357;-73
2023/11/10 02:02:29;;;;;;;5.25;1.15;;;;;;;13.59;64.17;99654.16;4969275;28;98045;-73
2023/11/10 02:04:56;;;;;;;2.83;0.93;;;;;;;13.84;63.70;99649.78;4969135;28;98991;-73
2023/11/10 02:07:22;;;;;;;2.58;1.00;;;;;;;13.89;63.14;99647.69;4969760;28;98028;-74
2023/11/10 02:09:51;;;;;;;4.97;1.10;;;;;;;13.76;62.64;99654.75;4968521;28;96830;-73
2023/11/10 02:12:18;;;;;;;1.75;0.77;;;;;;;13.51;63.78;99658.16;4971338;28;96894;-73
2023/11/10 02:14:44;;;;;;;3.58;1.05;;;;;;;13.52;63.45;99657.19;4967740;28;99593;-74
2023/11/10 02:17:11;;;;;;;1.83;0.73;;;;;;;13.71;62.97;99656.88;4962826;28;99021;-73
2023/11/10 02:19:38;;;;;;;1.23;0.93;;;;;;;13.55;63.09;99638.44;4969950;28;96821;-72
2023/11/10 02:22:04;;;;;;;3.58;1.05;;;;;;;13.47;63.22;99639.84;4970547;28;98788;-74
2023/11/10 02:24:32;;;;;;;2.65;1.20;;;;;;;13.46;63.35;99633.69;4969906;28;97607;-73
2023/11/10 02:27:00;;;;;;;3.88;1.13;;;;;;;13.40;63.17;99630.59;4970523;28;101481;-73
2023/11/10 02:29:26;;;;;;;6.22;1.20;;;;;;;13.45;63.13;99623.22;4970179;28;97104;-72
2023/11/10 02:31:54;;;;;;;2.22;1.10;;;;;;;13.41;63.38;99619.03;4970448;28;97072;-74
2023/11/10 02:34:21;;;;;;;1.33;0.80;;;;;;;13.46;62.55;99623.09;4969838;28;100883;-73
2023/11/10 02:36:47;;;;;;;3.10;1.00;;;;;;;13.31;63.08;99608.19;4970355;28;100354;-73
2023/11/10 02:39:14;;;;;;;2.65;1.23;;;;;;;13.24;63.09;99617.47;4970580;28;96692;-74
2023/11/10 02:41:40;;;;;;;5.70;0.82;;;;;;;13.24;62.68;99627.25;4968209;28;98977;-74
2023/11/10 02:44:09;;;;;;;5.35;1.00;;;;;;;13.22;63.00;99616.72;4967680;28;98901;-74
2023/11/10 02:46:35;;;;;;;6.15;1.08;;;;;;;13.18;62.67;99609.06;4969825;28;99023;-73
2023/11/10 02:49:03;;;;;;;2.10;0.90;;;;;;;13.21;62.46;99611.50;4968395;28;97186;-73
2023/11/10 02:51:29;;;;;;;2.40;0.80;;;;;;;13.35;61.96;99607.03;4970539;28;97331;-74
2023/11/10 02:53:56;;;;;;;5.93;0.85;;;;;;;13.17;62.59;99597.59;4968310;28;99497;-74
2023/11/10 02:56:22;;;;;;;3.67;1.13;;;;;;;13.11;62.62;99605.91;4969971;28;99230;-74
2023/11/10 02:58:49;;;;;;;3.95;1.55;;;;;;;13.19;62.44;99595.72;4969262;28;98421;-74
2023/11/10 03:01:22;;;;;;;4.05;0.98;;;;;;;13.11;62.62;99595.31;4966092;28;96865;-75
2023/11/10 03:03:49;;;;;;;3.38;1.05;;;;;;;12.96;62.91;99589.19;4968244;28;102082;-74
2023/11/10 03:06:15;;;;;;;4.57;1.00;;;;;;;13.10;62.56;99577.69;4962898;28;98883;-74
2023/11/10 03:08:42;;;;;;;5.65;0.93;;;;;;;13.01;62.74;99576.47;4969515;28;98569;-74
2023/11/10 03:11:08;;;;;;;3.38;1.00;;;;;;;12.97;62.75;99571.47;4970288;28;96916;-75
2023/11/10 03:13:35;;;;;;;4.90;1.05;;;;;;;12.93;62.66;99569.97;4968418;28;99086;-74
2023/11/10 03:16:02;;;;;;;5.20;0.77;;;;;;;12.86;63.17;99573.97;4968585;28;98713;-74
2023/11/10 03:18:30;;;;;;;3.78;1.00;;;;;;;13.00;62.42;99580.06;4969642;28;98549;-74
2023/11/10 03:20:56;;;;;;;3.70;0.93;;;;;;;13.08;62.37;99582.22;4968723;28;96920;-74
2023/11/10 03:23:23;;;;;;;4.95;0.75;;;;;;;13.19;62.07;99577.16;4968371;28;99007;-74
2023/11/10 03:25:49;;;;;;;1.85;1.15;;;;;;;13.25;61.39;99575.88;4969443;28;98963;-74
2023/11/10 03:28:15;;;;;;;3.55;1.02;;;;;;;13.08;61.99;99575.13;4967760;28;97458;-74
2023/11/10 03:30:42;;;;;;;7.47;1.17;;;;;;;13.28;61.35;99576.53;4969947;28;96711;-74
2023/11/10 03:33:08;;;;;;;5.30;0.70;;;;;;;13.34;61.06;99575.28;4964990;28;98298;-76
2023/11/10 03:35:36;;;;;;;2.55;0.80;;;;;;;13.27;61.23;99581.94;4967189;28;98081;-76
2023/11/10 03:38:03;;;;;;;5.43;1.40;;;;;;;13.28;61.37;99581.84;4957648;28;96768;-73
2023/11/10 03:40:30;;;;;;;5.25;1.10;;;;;;;13.51;60.64;99593.63;4965397;28;97180;-77
2023/11/10 03:42:56;;;;;;;8.32;1.20;;;;;;;13.29;61.07;99588.00;4965538;28;98984;-77
2023/11/10 03:45:22;;;;;;;10.38;1.52;;;;;;;13.44;60.56;99581.69;4966869;28;99733;-77
2023/11/10 03:47:49;;;;;;;2.58;0.70;;;;;;;13.49;60.70;99590.19;4969442;28;96891;-77
2023/11/10 03:50:16;;;;;;;4.15;1.30;;;;;;;13.54;60.27;99591.59;4968359;28;97157;-77
2023/11/10 03:52:43;;;;;;;2.38;0.93;;;;;;;13.60;60.20;99594.78;4966087;28;99026;-77
2023/11/10 03:55:10;;;;;;;4.95;1.05;;;;;;;13.61;60.15;99592.03;4967398;28;99077;-77
2023/11/10 03:57:36;;;;;;;6.20;1.10;;;;;;;13.37;60.95;99596.31;4966645;28;97232;-77
2023/11/10 04:00:03;;;;;;;4.32;0.90;;;;;;;13.43;61.01;99593.25;4966676;28;96868;-75
2023/11/10 04:02:29;;;;;;;3.40;0.65;;;;;;;13.39;60.86;99581.97;4965896;28;99215;-77
2023/11/10 04:04:56;;;;;;;4.15;1.10;;;;;;;13.46;60.92;99587.72;4963808;28;98791;-76
2023/11/10 04:07:22;;;;;;;4.82;1.23;;;;;;;13.33;61.08;99577.06;4965056;28;98929;-76
2023/11/10 04:09:50;;;;;;;5.10;1.17;;;;;;;13.39;61.12;99576.66;4969012;28;98824;-76
2023/11/10 04:12:16;;;;;;;3.38;1.00;;;;;;;13.31;61.59;99580.78;4967810;28;98801;-77
2023/11/10 04:14:43;;;;;;;5.50;0.82;;;;;;;13.42;61.38;99570.31;4966224;28;98905;-77
2023/11/10 04:17:09;;;;;;;7.80;1.00;;;;;;;13.46;61.02;99570.00;4969258;28;96951;-77
2023/11/10 04:19:35;;;;;;;3.90;1.27;;;;;;;13.49;61.15;99568.97;4967934;28;97057;-78
2023/11/10 04:22:02;;;;;;;2.15;0.82;;;;;;;13.63;60.53;99568.06;4962617;28;98821;-78
2023/11/10 04:24:28;;;;;;;1.77;0.77;;;;;;;13.47;61.08;99570.88;4967498;28;98959;-78
2023/11/10 04:26:56;;;;;;;3.42;1.20;;;;;;;13.51;61.12;99575.03;4968734;28;97006;-78
2023/11/10 04:29:23;;;;;;;1.98;0.90;;;;;;;13.36;61.25;99573.38;4964809;28;97331;-76
2023/11/10 04:31:49;;;;;;;1.58;0.80;;;;;;;13.50;61.22;99579.50;4964461;28;98330;-78
2023/11/10 04:34:15;;;;;;;4.03;0.80;;;;;;;13.52;61.09;99577.56;4960151;28;99247;-78
2023/11/10 04:36:43;;;;;;;2.90;0.95;;;;;;;13.60;60.83;99577.06;4968748;28;96931;-78
2023/11/10 04:39:10;;;;;;;5.00;0.90;;;;;;;13.56;61.06;99578.22;4969979;28;96962;-78
2023/11/10 04:41:38;;;;;;;4.45;1.30;;;;;;;13.69;60.51;99576.47;4970077;28;99227;-78
2023/11/10 04:44:06;;;;;;;1.85;1.00;;;;;;;13.66;60.43;99576.66;4968615;28;99413;-78
2023/11/10 04:46:33;;;;;;;2.13;1.15;;;;;;;13.62;60.88;99569.00;4968136;28;96879;-78
2023/11/10 04:48:59;;;;;;;3.38;1.08;;;;;;;13.45;61.49;99573.66;4968428;28;98781;-78
2023/11/10 04:51:28;;;;;;;3.25;0.85;;;;;;;13.49;61.16;99575.13;4966190;28;100469;-78
2023/11/10 04:53:54;;;;;;;1.92;0.80;;;;;;;13.60;61.29;99577.06;4967730;28;97474;-78
2023/11/10 04:56:21;;;;;;;2.92;1.20;;;;;;;13.76;60.21;99575.09;4967970;28;96725;-77
2023/11/10 04:58:47;;;;;;;2.83;0.80;;;;;;;13.95;59.65;99583.53;4967190;28;99855;-78
2023/11/10 05:01:15;;;;;;;4.43;0.93;;;;;;;14.11;59.34;99590.47;4967891;28;99399;-78
2023/11/10 05:03:42;;;;;;;3.00;1.33;;;;;;;13.97;59.61;99588.75;4969074;28;99370;-79
2023/11/10 05:06:08;;;;;;;2.00;0.90;;;;;;;13.94;59.83;99599.56;4969388;28;96893;-78
2023/11/10 05:08:35;;;;;;;2.10;1.00;;;;;;;13.87;59.83;99591.16;4970717;28;96894;-78
2023/11/10 05:11:01;;;;;;;3.10;1.23;;;;;;;14.00;59.81;99600.94;4967293;28;99115;-78
2023/11/10 05:13:27;;;;;;;3.92;1.08;;;;;;;13.92;60.02;99599.66;4971487;28;98763;-76
2023/11/10 05:15:54;;;;;;;3.35;1.10;;;;;;;13.87;60.11;99596.47;4971289;28;99040;-76
2023/11/10 05:18:26;;;;;;;3.70;0.98;;;;;;;13.84;60.20;99607.31;4970129;28;99347;-76
2023/11/10 05:20:53;;;;;;;4.32;1.15;;;;;;;13.84;60.56;99602.00;4971334;28;99139;-76
2023/11/10 05:23:19;;;;;;;3.63;1.40;;;;;;;13.88;60.48;99600.84;4968733;28;99798;-76
2023/11/10 05:25:46;;;;;;;4.95;1.30;;;;;;;13.98;60.04;99602.88;4972053;28;96761;-76
2023/11/10 05:28:12;;;;;;;6.10;1.50;;;;;;;13.97;60.36;99604.69;4967582;28;97704;-76
2023/11/10 05:30:39;;;;;;;3.45;1.10;;;;;;;13.79;60.77;99604.09;4965733;28;98088;-76
2023/11/10 05:33:08;;;;;;;2.60;1.02;;;;;;;13.90;60.65;99604.25;4967865;28;98828;-78
2023/11/10 05:35:36;;;;;;;3.53;1.00;;;;;;;13.66;61.46;99605.84;4968549;28;99337;-78
2023/11/10 05:38:02;;;;;;;3.35;0.98;;;;;;;13.78;61.00;99612.19;4970065;28;96745;-79
2023/11/10 05:40:29;;;;;;;3.80;0.95;;;;;;;13.70;61.53;99607.38;4971291;28;97712;-78
2023/11/10 05:42:55;;;;;;;4.03;1.00;;;;;;;13.61;61.54;99607.13;4967594;28;99153;-78
2023/11/10 05:45:22;;;;;;;3.30;0.85;;;;;;;13.67;61.29;99614.69;4970159;28;97060;-76
2023/11/10 05:47:48;;;;;;;5.88;1.02;;;;;;;13.69;61.48;99613.63;4967589;28;96979;-76
2023/11/10 05:50:16;;;;;;;1.50;1.00;;;;;;;13.75;61.05;99623.00;4968905;28;98169;-76
2023/11/10 05:52:44;;;;;;;2.40;1.30;;;;;;;13.61;61.82;99625.69;4966988;28;98889;-76
2023/11/10 05:55:11;;;;;;;2.22;1.10;;;;;;;13.59;61.97;99632.94;4967129;28;98741;-76
2023/11/10 05:57:38;;;;;;;2.80;1.17;;;;;;;13.31;62.58;99633.84;4971024;28;99860;-75
2023/11/10 06:00:06;;;;;;;7.20;1.20;;;;;;;13.63;62.05;99637.94;4968817;28;101374;-75
2023/11/10 06:02:33;;;;;;;3.03;1.25;;;;;;;13.54;62.21;99635.84;4971397;28;98874;-76
2023/11/10 06:04:59;;;;;;;4.85;1.10;;;;;;;13.50;62.66;99640.53;4969277;28;97816;-76
2023/11/10 06:07:25;;;;;;;4.75;1.02;;;;;;;13.35;62.81;99646.81;4971256;28;98909;-77
2023/11/10 06:09:53;;;;;;;7.90;1.30;;;;;;;13.68;61.83;99643.78;4968362;28;99060;-77
2023/11/10 06:12:20;;;;;;;3.22;1.75;;;;;;;13.67;61.93;99638.56;4966256;28;100346;-78
2023/11/10 06:14:47;;;;;;;2.95;1.05;;;;;;;13.56;62.09;99636.63;4967026;28;97924;-77
2023/11/10 06:17:13;;;;;;;2.97;1.17;;;;;;;13.74;61.83;99645.19;4968936;28;99899;-77
2023/11/10 06:19:39;;;;;;;3.83;1.33;;;;;;;13.53;62.41;99640.31;4963605;28;97637;-78
2023/11/10 06:22:07;;;;;;;2.00;0.90;;;;;;;13.62;62.42;99641.53;4955008;28;102014;-76
2023/11/10 06:24:34;;;;;;;2.05;0.90;;;;;;;13.57;62.54;99647.16;4953279;28;97231;-74
2023/11/10 06:27:01;;;;;;;2.15;0.95;;;;;;;13.51;62.43;99652.00;4954467;28;100132;-71
2023/11/10 06:29:28;;;;;;;3.33;1.05;;;;;;;13.43;63.01;99643.69;4964054;28;99375;-71
2023/11/10 06:31:54;;;;;;;3.92;0.98;;;;;;;13.33;62.92;99648.72;4967258;28;98904;-72
2023/11/10 06:34:21;;;;;;;4.15;1.10;;;;;;;13.74;62.13;99643.38;4970010;28;96824;-73
2023/11/10 06:36:47;;;;;;;2.22;1.20;;;;;;;13.63;62.23;99656.50;4969483;28;97109;-72
2023/11/10 06:39:15;;;;;;;5.70;1.00;;;;;;;13.72;61.97;99649.75;4964039;28;99299;-74
2023/11/10 06:41:41;;;;;;;3.00;1.30;;;;;;;13.74;62.05;99659.31;4969016;28;99039;-73
2023/11/10 06:44:09;;;;;;;3.67;1.00;;;;;;;13.66;62.18;99650.97;4971863;28;98554;-73
2023/11/10 06:46:35;;;;;;;2.85;0.80;;;;;;;13.60;62.30;99645.22;4969297;28;96865;-78
2023/11/10 06:49:02;;;;;;;1.42;0.85;;;;;;;13.55;62.45;99640.22;4965090;28;99187;-76
2023/11/10 06:51:30;;;;;;;2.20;0.98;;;;;;;13.57;62.33;99643.63;4964640;28;98980;-78
2023/11/10 06:53:57;;;;;;;2.10;0.80;;;;;;;13.61;62.00;99652.25;4970402;28;96745;-79
2023/11/10 06:56:23;;;;;;;6.28;0.70;;;;;;;13.49;62.49;99646.78;4968008;28;97299;-78
2023/11/10 06:58:50;;;;;;;3.33;0.93;;;;;;;13.69;62.26;99644.63;4969958;28;99010;-79
2023/11/10 07:01:17;;;;;;;7.40;0.90;;;;;;;13.82;61.67;99646.38;4965433;28;99526;-78
2023/11/10 07:03:44;;;;;;;4.10;1.25;;;;;;;13.75;61.87;99653.03;4969102;28;97220;-79
2023/11/10 07:06:10;;;;;;;5.13;1.13;;;;;;;13.80;61.30;99648.28;4976364;28;96799;-78
2023/11/10 07:08:38;;;;;;;5.40;0.98;;;;;;;13.78;61.46;99659.97;4970211;28;100598;-78
2023/11/10 07:11:07;;;;;;;3.17;0.80;;;;;;;13.81;61.71;99660.59;4970008;28;100438;-73
2023/11/10 07:13:34;;;;;;;2.00;0.80;;;;;;;13.72;61.87;99661.19;4970256;28;96742;-74
2023/11/10 07:16:03;;;;;;;3.63;1.15;;;;;;;13.63;62.42;99661.81;4970287;28;96649;-75
2023/11/10 07:18:32;;;;;;;2.95;1.00;;;;;;;13.77;61.82;99675.03;4968598;28;98910;-73
2023/11/10 07:20:59;;;;;;;3.08;0.90;;;;;;;13.93;61.61;99669.56;4969185;28;100220;-74
2023/11/10 07:23:26;;;;;;;3.50;1.20;;;;;;;14.07;60.76;99666.84;4969824;28;96802;-74
2023/11/10 07:25:52;;;;;;;2.50;0.90;;;;;;;13.92;61.02;99668.72;4969977;28;98067;-74
2023/11/10 07:28:19;;;;;;;6.65;1.55;;;;;;;13.88;61.27;99667.22;4969784;28;97615;-74
2023/11/10 07:30:46;;;;;;;2.58;0.88;;;;;;;13.96;60.68;99670.22;4968581;28;98789;-74
2023/11/10 07:33:12;;;;;;;1.15;0.73;;;;;;;13.87;60.96;99675.28;4969946;28;96675;-75
2023/11/10 07:35:40;;;;;;;6.10;1.10;;;;;;;14.06;60.37;99675.75;4970422;28;97182;-75
2023/11/10 07:38:06;;;;;;;2.00;0.90;;;;;;;13.95;60.69;99679.16;4969057;28;98867;-75
2023/11/10 07:40:33;;;;;;;1.42;0.90;;;;;;;14.16;60.07;99674.22;4965443;28;99256;-75
2023/11/10 07:42:59;;;;;;;3.10;0.70;;;;;;;14.05;60.10;99670.53;4965352;28;96742;-75
2023/11/10 07:45:28;;;;;;;2.45;0.80;;;;;;;14.36;59.29;99676.38;4967686;28;97133;-74
2023/11/10 07:47:54;;;;;;;2.17;1.05;;;;;;;14.54;58.58;99676.09;4968890;28;101553;-74
2023/11/10 07:50:21;;;;;;;3.80;0.90;;;;;;;14.21;59.21;99668.59;4968322;28;98702;-74
2023/11/10 07:52:49;;;;;;;8.70;1.00;;;;;;;14.30;58.96;99670.63;4968916;28;97828;-75
2023/11/10 07:55:16;;;;;;;3.17;1.25;;;;;;;14.41;58.66;99667.25;4969390;28;96918;-74
2023/11/10 07:57:42;;;;;;;3.15;0.95;;;;;;;14.62;57.79;99664.00;4969269;28;99418;-74
2023/11/10 08:00:13;;;;;;;3.97;1.08;;;;;;;14.85;57.18;99661.53;4966141;28;98951;-75
2023/11/10 08:02:39;;;;;;;1.75;0.95;;;;;;;14.67;57.60;99663.66;4969930;28;96969;-75
2023/11/10 08:05:06;;;;;;;5.55;1.50;;;;;;;14.89;56.60;99655.06;4968434;28;97331;-75
2023/11/10 08:07:33;;;;;;;4.18;0.90;;;;;;;15.15;56.46;99654.91;4968613;28;99500;-78
2023/11/10 08:10:02;;;;;;;2.78;0.73;;;;;;;15.42;55.19;99654.75;4968783;28;98783;-77
2023/11/10 08:12:29;;;;;;;2.53;1.05;;;;;;;15.39;54.01;99662.94;4969951;28;97997;-78
2023/11/10 08:14:56;;;;;;;6.00;0.80;;;;;;;15.27;54.55;99677.13;4969260;28;96875;-78
2023/11/10 08:17:23;;;;;;;1.92;0.93;;;;;;;15.17;54.64;99673.41;4968375;28;98376;-78
2023/11/10 08:19:49;;;;;;;3.63;1.05;;;;;;;15.17;54.80;99676.06;4969061;28;99307;-78
2023/11/10 08:22:16;;;;;;;4.15;0.95;;;;;;;15.34;54.12;99675.72;4970509;28;96698;-77
2023/11/10 08:24:43;;;;;;;4.70;0.77;;;;;;;15.39;53.61;99659.41;4962599;28;97103;-78
2023/11/10 08:27:13;;;;;;;2.50;0.80;;;;;;;15.09;54.03;99662.47;4968576;28;98925;-79
2023/11/10 08:29:39;;;;;;;6.13;0.88;;;;;;;15.42;53.47;99670.72;4968228;28;98721;-78
2023/11/10 08:32:07;;;;;;;3.90;0.80;;;;;;;15.24;53.55;99665.81;4966417;28;96954;-77
2023/11/10 08:34:34;;;;;;;1.95;0.60;;;;;;;15.18;53.80;99666.28;4965548;28;97288;-77
2023/11/10 08:37:00;;;;;;;2.90;0.77;;;;;;;15.59;52.86;99660.66;4969994;28;99571;-77
2023/11/10 08:39:26;;;;;;;4.13;0.60;;;;;;;15.51;52.85;99670.03;4970967;28;99124;-77
2023/11/10 08:41:53;;;;;;;3.45;0.55;;;;;;;15.60;51.93;99665.88;4973233;28;97136;-78
2023/11/10 08:44:21;;;;;;;1.92;0.60;;;;;;;15.56;51.57;99671.56;4965764;28;96816;-78
2023/11/10 08:46:50;;;;;;;2.17;0.90;;;;;;;15.50;51.92;99684.28;4971247;28;99481;-78
2023/11/10 08:49:16;;;;;;;1.38;0.50;;;;;;;15.30;51.78;99681.34;4971491;28;98851;-77
2023/11/10 08:51:43;;;;;;;2.70;0.70;;;;;;;15.09;52.80;99689.09;4968405;28;96688;-78
2023/11/10 08:54:12;;;;;;;1.25;0.50;;;;;;;15.38;51.65;99692.31;4973246;28;96963;-77
2023/11/10 08:56:38;;;;;;;1.77;0.60;;;;;;;15.32;52.17;99687.44;4970699;28;97609;-78
2023/11/10 08:59:05;;;;;;;1.88;0.80;;;;;;;15.29;52.17;99688.53;4971652;28;99706;-78
2023/11/10 09:01:33;;;;;;;1.17;0.80;;;;;;;15.26;52.73;99691.38;4972299;28;96781;-77
2023/11/10 09:03:59;;;;;;;1.50;0.60;;;;;;;15.56;51.67;99684.88;4966601;28;96819;-77
2023/11/10 09:06:26;;;;;;;3.15;0.60;;;;;;;15.69;50.84;99688.31;4972619;28;98051;-77
2023/11/10 09:08:53;;;;;;;4.13;0.50;;;;;;;15.76;51.67;99690.41;4970611;28;99167;-76
2023/11/10 09:11:20;;;;;;;3.42;0.55;;;;;;;15.86;50.54;99688.78;4966578;28;96752;-77
2023/11/10 09:13:47;;;;;;;1.85;0.60;;;;;;;16.09;50.57;99686.22;4967356;28;96912;-76
2023/11/10 09:16:13;;;;;;;2.70;0.70;;;;;;;16.17;49.73;99682.00;4972748;28;99128;-77
2023/11/10 09:18:41;;;;;;;1.88;0.80;;;;;;;16.43;49.44;99682.69;4970794;28;97484;-77
2023/11/10 09:21:08;;;;;;;2.83;0.70;;;;;;;16.33;49.13;99690.56;4967624;28;97525;-77
2023/11/10 09:23:34;;;;;;;1.85;0.80;;;;;;;16.23;49.49;99686.88;4971300;28;97048;-76
2023/11/10 09:26:01;;;;;;;4.43;0.80;;;;;;;16.53;49.25;99677.53;4967125;28;98963;-77
2023/11/10 09:28:30;;;;;;;3.80;0.70;;;;;;;16.54;49.21;99681.91;4969817;28;99510;-76
2023/11/10 09:30:57;;;;;;;4.63;0.73;;;;;;;16.42;49.43;99675.66;4966696;28;96884;-76
2023/11/10 09:33:25;;;;;;;2.20;0.50;;;;;;;16.11;49.98;99677.16;4970215;28;97360;-76
2023/11/10 09:35:54;;;;;;;2.50;0.70;;;;;;;16.26;49.93;99670.66;4964599;28;99510;-76
2023/11/10 09:38:20;;;;;;;1.23;0.60;;;;;;;16.48;49.48;99677.00;4966806;28;99054;-77
2023/11/10 09:40:47;;;;;;;2.88;0.50;;;;;;;16.22;50.06;99671.00;4968890;28;97804;-77
2023/11/10 09:43:13;;;;;;;3.13;0.50;;;;;;;16.37;49.89;99674.31;4966941;28;96824;-76
2023/11/10 09:45:43;;;;;;;2.47;0.70;;;;;;;16.21;50.01;99675.47;4968399;28;98970;-77
2023/11/10 09:48:10;;;;;;;6.93;0.70;;;;;;;16.19;50.51;99672.09;4968069;28;98858;-79
2023/11/10 09:50:39;;;;;;;2.97;0.60;;;;;;;16.06;50.80;99665.13;4969541;28;96704;-75
2023/11/10 09:53:07;;;;;;;3.03;1.35;;;;;;;15.76;51.19;99660.25;4971132;28;96991;-77
2023/11/10 09:55:34;;;;;;;2.63;0.43;;;;;;;15.93;51.02;99659.88;4964264;28;99260;-77
2023/11/10 09:58:02;;;;;;;1.50;0.68;;;;;;;15.78;51.28;99661.00;4970521;28;98924;-76
2023/11/10 10:00:31;;;;;;;1.60;0.60;;;;;;;15.89;50.49;99659.25;4966830;28;98677;-77
2023/11/10 10:02:56;;;;;;;0.70;0.50;;;;;;;16.02;50.09;99664.50;4969643;28;97033;-76
2023/11/10 10:05:23;;;;;;;;;;;;;;;15.95;50.14;99661.44;4967542;28;98912;-77
2023/11/10 10:07:49;;;;;;;2.88;0.60;;;;;;;16.12;49.96;99665.53;4965860;28;98874;-77
2023/11/10 10:10:19;;;;;;;1.48;0.63;;;;;;;16.31;48.35;99660.50;4964934;28;97253;-76
2023/11/10 10:12:46;;;;;;;9.77;0.77;;;;;;;16.23;49.28;99662.03;4969024;28;97005;-77
2023/11/10 10:15:13;;;;;;;4.35;0.75;;;;;;;16.36;48.92;99668.13;4964595;28;101909;-77
2023/11/10 10:17:40;;;;;;;1.42;0.55;;;;;;;16.34;49.28;99657.59;4968418;28;98998;-77
2023/11/10 10:20:09;;;;;;;3.78;0.73;;;;;;;16.40;49.15;99661.63;4963560;28;96981;-76
2023/11/10 10:22:36;;;;;;;3.03;0.82;;;;;;;16.24;49.85;99659.25;4968655;28;96851;-76
2023/11/10 10:25:03;;;;;;;2.65;0.60;;;;;;;16.28;49.64;99654.53;4966231;28;100555;-76
2023/11/10 10:27:30;;;;;;;2.03;0.57;;;;;;;16.61;48.85;99654.66;4963996;28;99582;-77
2023/11/10 10:29:59;;;;;;;1.95;0.73;;;;;;;16.84;48.16;99652.88;4969101;28;96844;-76
2023/11/10 10:32:25;;;;;;;2.70;0.88;;;;;;;16.89;47.75;99650.69;4968342;28;98537;-77
2023/11/10 10:34:52;;;;;;;2.10;0.45;;;;;;;16.69;48.15;99649.56;4969659;28;100046;-76
2023/11/10 10:37:19;;;;;;;1.80;0.60;;;;;;;16.77;47.61;99646.31;4965251;28;97736;-76
2023/11/10 10:39:46;;;;;;;0.60;0.40;;;;;;;16.74;47.47;99651.88;4967007;28;97314;-77
2023/11/10 10:42:15;;;;;;;3.83;0.50;;;;;;;16.49;47.88;99652.91;4969286;28;97111;-77
2023/11/10 10:44:44;;;;;;;2.78;0.57;;;;;;;16.46;48.22;99654.97;4970615;28;102387;-78
2023/11/10 10:47:11;;;;;;;1.30;0.45;;;;;;;16.39;48.28;99641.25;4960237;28;99188;-76
2023/11/10 10:49:39;;;;;;;3.58;0.80;;;;;;;16.47;48.34;99643.34;4962269;28;99422;-77
2023/11/10 10:52:06;;;;;;;4.10;0.80;;;;;;;16.16;48.46;99645.66;4970637;28;97362;-77
2023/11/10 10:54:32;;;;;;;3.85;0.60;;;;;;;15.97;48.95;99647.16;4966412;28;98091;-78
2023/11/10 10:57:03;;;;;;;2.40;0.55;;;;;;;15.96;49.61;99643.66;4960961;28;99635;-77
2023/11/10 10:59:29;;;;;;;0.93;0.60;;;;;;;15.95;49.85;99636.63;4959772;28;97871;-77
2023/11/10 11:01:58;;;;;;;2.05;0.50;;;;;;;16.00;49.90;99636.28;4967488;28;96788;-77
2023/11/10 11:04:29;;;;;;;1.65;0.75;;;;;;;16.22;49.44;99637.19;4966027;28;99130;-77
2023/11/10 11:07:30;;;;;;;1.38;0.68;;;;;;;16.31;48.85;99631.19;4968529;28;99239;-74
2023/11/10 11:10:07;;;;;;;3.15;1.23;;;;;;;16.14;49.34;99626.28;4968575;28;97504;-74
2023/11/10 11:12:58;;;;;;;1.98;0.52;;;;;;;16.39;48.58;99627.94;4969776;28;97294;-74
2023/11/10 11:15:31;;;;;;;6.13;0.52;;;;;;;16.25;49.07;99618.31;4960679;28;98467;-75
2023/11/10 11:18:19;;;;;;;1.77;0.60;;;;;;;15.94;50.05;99619.81;4967773;28;98885;-75
2023/11/10 11:20:47;;;;;;;2.13;0.60;;;;;;;15.94;50.15;99616.28;4968897;28;97047;-74
2023/11/10 11:23:15;;;;;;;3.45;0.63;;;;;;;15.76;50.35;99613.16;4968574;28;97376;-74
2023/11/10 11:25:42;;;;;;;3.90;0.77;;;;;;;15.87;50.08;99609.72;4966917;28;98993;-74
2023/11/10 11:28:09;;;;;;;2.20;0.95;;;;;;;15.79;50.79;99612.09;4969785;28;99979;-74
2023/11/10 11:30:36;;;;;;;8.57;0.60;;;;;;;16.09;49.90;99614.25;4969452;28;96703;-74
2023/11/10 11:33:09;;;;;;;4.03;0.70;;;;;;;16.27;49.47;99612.88;4969548;28;96913;-75
2023/11/10 11:35:46;;;;;;;1.70;0.50;;;;;;;16.23;49.42;99614.06;4967762;28;98974;-74